createdAt,value
2022-08-03T00:02:18.180Z,21.70
2022-08-03T00:04:45.793Z,21.70
2022-08-03T00:07:12.924Z,21.60
2022-08-03T00:09:40.294Z,21.60
2022-08-03T00:12:08.008Z,21.60
2022-08-03T00:14:35.385Z,21.50
2022-08-03T00:17:03.536Z,21.50
2022-08-03T00:19:30.998Z,21.50
2022-08-03T00:21:58.092Z,21.50
2022-08-03T00:24:25.382Z,21.50
2022-08-03T00:26:52.919Z,21.40
2022-08-03T00:29:20.028Z,21.40
2022-08-03T00:31:52.896Z,21.30
2022-08-03T00:34:57.965Z,21.30
2022-08-03T00:37:16.425Z,21.30
2022-08-03T00:39:45.994Z,21.20
2022-08-03T00:42:14.185Z,21.20
2022-08-03T00:44:43.297Z,21.20
2022-08-03T00:47:11.798Z,21.10
2022-08-03T00:49:41.319Z,21.10
2022-08-03T00:52:14.014Z,21.00
2022-08-03T00:54:41.479Z,21.00
2022-08-03T00:57:09.386Z,21.00
2022-08-03T00:59:38.283Z,20.90
2022-08-03T01:02:05.747Z,20.90
2022-08-03T01:04:33.188Z,20.80
2022-08-03T01:07:46.910Z,20.80
2022-08-03T01:10:26.919Z,20.80
2022-08-03T01:14:01.462Z,20.70
2022-08-03T01:16:19.988Z,20.70
2022-08-03T01:19:36.322Z,20.70
2022-08-03T01:22:37.860Z,20.60
2022-08-03T01:25:31.986Z,20.60
2022-08-03T01:28:38.893Z,20.60
2022-08-03T01:31:09.195Z,20.50
2022-08-03T01:33:42.596Z,20.50
2022-08-03T01:36:24.912Z,20.50
2022-08-03T01:38:56.614Z,20.50
2022-08-03T01:41:55.402Z,20.40
2022-08-03T01:44:29.443Z,20.40
2022-08-03T01:47:01.293Z,20.30
2022-08-03T01:49:32.053Z,20.30
2022-08-03T01:52:04.829Z,20.30
2022-08-03T01:54:38.185Z,20.20
2022-08-03T01:57:07.189Z,20.20
2022-08-03T01:59:36.988Z,20.20
2022-08-03T02:02:28.473Z,20.20
2022-08-03T02:04:56.981Z,20.10
2022-08-03T02:07:27.313Z,20.10
2022-08-03T02:09:56.086Z,20.10
2022-08-03T02:12:27.352Z,20.00
2022-08-03T02:14:56.630Z,20.00
2022-08-03T02:17:39.450Z,20.00
2022-08-03T02:20:10.737Z,19.90
2022-08-03T02:22:41.574Z,19.90
2022-08-03T02:25:14.535Z,19.90
2022-08-03T02:27:57.354Z,19.80
2022-08-03T02:30:33.386Z,19.80
2022-08-03T02:33:01.993Z,19.80
2022-08-03T02:35:31.165Z,19.70
2022-08-03T02:38:03.458Z,19.70
2022-08-03T02:40:32.472Z,19.70
2022-08-03T02:43:18.543Z,19.60
2022-08-03T02:45:49.733Z,19.60
2022-08-03T02:48:23.296Z,19.60
2022-08-03T02:50:54.673Z,19.60
2022-08-03T02:53:24.125Z,19.50
2022-08-03T02:55:53.047Z,19.50
2022-08-03T02:58:23.940Z,19.40
2022-08-03T03:00:52.877Z,19.40
2022-08-03T03:03:22.588Z,19.40
2022-08-03T03:05:55.894Z,19.40
2022-08-03T03:08:28.227Z,19.30
2022-08-03T03:10:58.291Z,19.30
2022-08-03T03:13:27.956Z,19.30
2022-08-03T03:15:58.133Z,19.30
2022-08-03T03:18:28.256Z,19.30
2022-08-03T03:20:56.775Z,19.20
2022-08-03T03:23:26.814Z,19.20
2022-08-03T03:25:56.558Z,19.20
2022-08-03T03:28:25.457Z,19.20
2022-08-03T03:30:53.457Z,19.10
2022-08-03T03:33:24.760Z,19.10
2022-08-03T03:35:52.917Z,19.10
2022-08-03T03:38:20.680Z,19.10
2022-08-03T03:40:48.732Z,19.00
2022-08-03T03:43:18.614Z,19.00
2022-08-03T03:45:47.126Z,19.00
2022-08-03T03:48:14.724Z,18.90
2022-08-03T03:50:42.413Z,18.90
2022-08-03T03:53:11.304Z,18.90
2022-08-03T03:55:59.688Z,18.90
2022-08-03T03:58:26.474Z,18.90
2022-08-03T04:00:54.119Z,18.80
2022-08-03T04:03:21.465Z,18.80
2022-08-03T04:06:07.497Z,18.80
2022-08-03T04:08:53.275Z,18.80
2022-08-03T04:11:31.041Z,18.80
2022-08-03T04:14:24.300Z,18.80
2022-08-03T04:16:59.070Z,18.80
2022-08-03T04:19:43.627Z,18.80
2022-08-03T04:22:15.017Z,18.80
2022-08-03T04:24:47.546Z,18.80
2022-08-03T04:27:19.751Z,18.80
2022-08-03T04:29:49.973Z,18.90
2022-08-03T04:32:18.267Z,18.90
2022-08-03T04:34:46.000Z,19.00
2022-08-03T04:37:35.854Z,19.00
2022-08-03T04:40:07.994Z,19.20
2022-08-03T04:42:36.006Z,19.20
2022-08-03T04:45:05.450Z,19.30
2022-08-03T04:47:34.408Z,19.40
2022-08-03T04:50:10.422Z,19.50
2022-08-03T04:52:39.699Z,19.60
2022-08-03T04:55:07.558Z,19.70
2022-08-03T04:57:34.884Z,19.80
2022-08-03T05:00:03.605Z,19.90
2022-08-03T05:02:32.381Z,20.10
2022-08-03T05:04:59.942Z,20.20
2022-08-03T05:07:36.212Z,20.30
2022-08-03T05:10:15.123Z,20.50
2022-08-03T05:12:46.075Z,20.60
2022-08-03T05:15:13.715Z,20.80
2022-08-03T05:17:41.718Z,20.90
2022-08-03T05:20:10.222Z,21.10
2022-08-03T05:22:37.398Z,21.20
2022-08-03T05:25:05.542Z,21.40
2022-08-03T05:27:32.677Z,21.50
2022-08-03T05:30:27.347Z,21.70
2022-08-03T05:32:46.990Z,21.80
2022-08-03T05:35:55.962Z,22.00
2022-08-03T05:38:03.369Z,22.10
2022-08-03T05:40:31.237Z,22.20
2022-08-03T05:42:59.185Z,22.30
2022-08-03T05:45:28.421Z,22.40
2022-08-03T05:47:56.090Z,22.50
2022-08-03T05:50:23.501Z,22.60
2022-08-03T05:52:50.773Z,22.70
2022-08-03T05:55:19.130Z,22.90
2022-08-03T05:57:47.505Z,23.00
2022-08-03T06:00:17.206Z,23.20
2022-08-03T06:02:44.546Z,23.30
2022-08-03T06:05:12.095Z,23.50
2022-08-03T06:07:39.304Z,23.70
2022-08-03T06:10:37.354Z,23.90
2022-08-03T06:12:54.809Z,24.00
2022-08-03T06:15:22.195Z,24.20
2022-08-03T06:17:51.326Z,24.40
2022-08-03T06:20:20.656Z,24.60
2022-08-03T06:22:51.293Z,24.80
2022-08-03T06:25:29.105Z,25.00
2022-08-03T06:27:56.545Z,25.20
2022-08-03T06:30:23.928Z,25.40
2022-08-03T06:32:51.687Z,25.60
2022-08-03T06:35:20.386Z,25.80
2022-08-03T06:37:52.238Z,25.90
2022-08-03T06:40:21.740Z,26.10
2022-08-03T06:42:51.675Z,26.30
2022-08-03T06:45:18.957Z,26.50
2022-08-03T06:47:46.173Z,26.70
2022-08-03T06:50:17.020Z,26.80
2022-08-03T06:52:45.640Z,26.90
2022-08-03T06:55:13.018Z,27.10
2022-08-03T06:57:40.084Z,27.20
2022-08-03T07:00:12.411Z,27.40
2022-08-03T07:02:40.708Z,27.50
2022-08-03T07:05:09.737Z,27.70
2022-08-03T07:07:37.409Z,27.80
2022-08-03T07:10:06.899Z,28.00
2022-08-03T07:12:35.083Z,28.10
2022-08-03T07:15:03.642Z,28.30
2022-08-03T07:17:33.912Z,28.40
2022-08-03T07:20:02.706Z,28.60
2022-08-03T07:22:30.077Z,28.70
2022-08-03T07:24:57.826Z,28.90
2022-08-03T07:27:27.156Z,29.00
2022-08-03T07:29:55.514Z,29.10
2022-08-03T07:32:23.234Z,29.30
2022-08-03T07:34:50.768Z,29.40
2022-08-03T07:37:17.950Z,29.50
2022-08-03T07:39:45.312Z,29.70
2022-08-03T07:42:12.418Z,29.80
2022-08-03T07:44:39.982Z,29.90
2022-08-03T07:47:07.341Z,30.10
2022-08-03T07:49:41.546Z,30.20
2022-08-03T07:52:28.441Z,30.40
2022-08-03T07:54:55.861Z,30.50
2022-08-03T07:57:23.030Z,30.60
2022-08-03T07:59:57.235Z,30.80
2022-08-03T08:02:29.687Z,30.90
2022-08-03T08:04:56.930Z,31.00
2022-08-03T08:07:25.285Z,31.20
2022-08-03T08:09:52.735Z,31.30
2022-08-03T08:12:20.099Z,31.40
2022-08-03T08:14:47.606Z,31.50
2022-08-03T08:17:15.215Z,31.70
2022-08-03T08:19:49.015Z,31.80
2022-08-03T08:22:30.231Z,31.90
2022-08-03T08:24:59.586Z,32.10
2022-08-03T08:27:28.755Z,32.20
2022-08-03T08:30:19.569Z,32.40
2022-08-03T08:32:48.226Z,32.50
2022-08-03T08:35:17.459Z,32.70
2022-08-03T08:37:51.054Z,32.80
2022-08-03T08:40:23.012Z,32.90
2022-08-03T08:42:58.689Z,33.10
2022-08-03T08:45:27.670Z,33.20
2022-08-03T08:48:01.644Z,33.30
2022-08-03T08:50:31.188Z,33.40
2022-08-03T08:53:03.847Z,33.40
2022-08-03T08:55:59.795Z,33.50
2022-08-03T08:58:22.384Z,33.50
2022-08-03T09:00:50.958Z,33.60
2022-08-03T09:03:22.742Z,33.70
2022-08-03T09:05:57.624Z,33.80
2022-08-03T09:08:24.790Z,33.90
2022-08-03T09:10:52.244Z,34.00
2022-08-03T09:13:19.568Z,34.10
2022-08-03T09:15:52.751Z,34.20
2022-08-03T09:18:32.917Z,34.30
2022-08-03T09:21:34.309Z,34.40
2022-08-03T09:24:06.478Z,34.60
2022-08-03T09:26:37.878Z,34.70
2022-08-03T09:29:14.897Z,34.80
2022-08-03T09:31:44.380Z,34.90
2022-08-03T09:34:18.349Z,35.00
2022-08-03T09:36:49.622Z,35.10
2022-08-03T09:39:40.574Z,35.20
2022-08-03T09:42:08.824Z,35.30
2022-08-03T09:44:42.396Z,35.40
2022-08-03T09:47:11.828Z,35.50
2022-08-03T09:49:41.667Z,35.60
2022-08-03T09:52:32.900Z,35.70
2022-08-03T09:56:21.156Z,35.80
2022-08-03T09:58:11.550Z,35.80
2022-08-03T10:01:06.199Z,35.90
2022-08-03T10:04:03.514Z,36.00
2022-08-03T10:06:28.835Z,36.10
2022-08-03T10:09:12.567Z,36.20
2022-08-03T10:11:42.563Z,36.30
2022-08-03T10:14:20.120Z,36.40
2022-08-03T10:16:48.952Z,36.50
2022-08-03T10:19:17.378Z,36.50
2022-08-03T10:21:54.272Z,36.50
2022-08-03T10:24:30.687Z,36.50
2022-08-03T10:27:04.761Z,36.50
2022-08-03T10:29:38.979Z,36.60
2022-08-03T10:32:34.614Z,36.60
2022-08-03T10:35:19.550Z,36.70
2022-08-03T10:38:01.110Z,36.70
2022-08-03T10:40:49.343Z,36.70
2022-08-03T10:43:46.488Z,36.80
2022-08-03T10:46:16.621Z,36.80
2022-08-03T10:48:44.311Z,36.80
2022-08-03T10:51:11.974Z,36.90
2022-08-03T10:53:50.158Z,36.90
2022-08-03T10:56:54.644Z,37.00
2022-08-03T10:59:47.281Z,37.00
2022-08-03T11:02:18.207Z,37.00
2022-08-03T11:04:45.542Z,37.00
2022-08-03T11:07:23.731Z,37.00
2022-08-03T11:09:56.719Z,37.10
2022-08-03T11:12:31.312Z,37.20
2022-08-03T11:15:08.845Z,37.20
2022-08-03T11:17:46.175Z,37.30
2022-08-03T11:20:51.127Z,37.30
2022-08-03T11:24:03.572Z,37.30
2022-08-03T11:26:29.883Z,37.40
2022-08-03T11:29:30.738Z,37.40
2022-08-03T11:31:58.340Z,37.40
2022-08-03T11:34:26.240Z,37.40
2022-08-03T11:37:23.013Z,37.50
2022-08-03T11:39:53.499Z,37.50
2022-08-03T11:42:27.520Z,37.50
2022-08-03T11:44:58.460Z,37.60
2022-08-03T11:47:27.983Z,37.60
2022-08-03T11:50:02.155Z,37.60
2022-08-03T11:52:37.903Z,37.70
2022-08-03T11:55:11.294Z,37.70
2022-08-03T11:59:10.651Z,37.80
2022-08-03T12:00:30.987Z,37.80
2022-08-03T12:03:14.482Z,37.80
2022-08-03T12:05:51.113Z,37.80
2022-08-03T12:08:32.704Z,37.80
2022-08-03T12:11:06.702Z,37.90
2022-08-03T12:14:47.975Z,37.90
2022-08-03T12:16:48.865Z,37.90
2022-08-03T12:19:16.546Z,37.90
2022-08-03T12:21:57.240Z,37.90
2022-08-03T12:24:28.478Z,37.80
2022-08-03T12:26:59.343Z,37.80
2022-08-03T12:29:27.615Z,37.80
2022-08-03T12:31:55.952Z,37.80
2022-08-03T12:34:23.588Z,37.80
2022-08-03T12:36:59.544Z,37.90
2022-08-03T12:39:30.798Z,37.90
2022-08-03T12:41:58.125Z,37.90
2022-08-03T12:44:34.820Z,38.00
2022-08-03T12:47:04.349Z,38.00
2022-08-03T12:49:46.900Z,38.00
2022-08-03T12:52:14.290Z,38.00
2022-08-03T12:54:41.711Z,38.00
2022-08-03T12:57:15.597Z,38.00
2022-08-03T12:59:53.436Z,38.00
2022-08-03T13:02:27.745Z,38.00
2022-08-03T13:04:55.767Z,38.00
2022-08-03T13:07:23.678Z,38.00
2022-08-03T13:09:54.200Z,38.00
2022-08-03T13:12:27.889Z,38.00
2022-08-03T13:15:01.014Z,37.90
2022-08-03T13:17:28.496Z,37.90
2022-08-03T13:19:56.465Z,37.90
2022-08-03T13:22:27.428Z,37.90
2022-08-03T13:24:57.711Z,37.90
2022-08-03T13:28:09.919Z,38.00
2022-08-03T13:30:17.906Z,38.00
2022-08-03T13:32:58.871Z,38.00
2022-08-03T13:35:26.543Z,38.00
2022-08-03T13:37:53.730Z,38.00
2022-08-03T13:40:23.839Z,38.10
2022-08-03T13:42:57.283Z,38.10
2022-08-03T13:45:24.866Z,38.00
2022-08-03T13:47:52.282Z,38.00
2022-08-03T13:50:19.602Z,38.00
2022-08-03T13:52:47.515Z,38.00
2022-08-03T13:55:14.970Z,38.00
2022-08-03T13:58:03.455Z,37.90
2022-08-03T14:00:29.812Z,37.90
2022-08-03T14:03:13.890Z,37.90
2022-08-03T14:05:45.504Z,37.80
2022-08-03T14:08:13.194Z,37.80
2022-08-03T14:10:44.487Z,37.80
2022-08-03T14:13:16.627Z,37.90
2022-08-03T14:15:49.886Z,37.90
2022-08-03T14:18:28.432Z,37.90
2022-08-03T14:21:02.026Z,37.90
2022-08-03T14:23:33.579Z,37.90
2022-08-03T14:26:00.964Z,37.90
2022-08-03T14:28:28.768Z,37.90
2022-08-03T14:30:56.475Z,37.80
2022-08-03T14:33:24.215Z,37.80
2022-08-03T14:35:52.680Z,37.80
2022-08-03T14:38:20.367Z,37.90
2022-08-03T14:40:48.535Z,37.90
2022-08-03T14:43:18.125Z,37.90
2022-08-03T14:45:45.565Z,37.90
2022-08-03T14:50:34.939Z,37.90
2022-08-03T14:51:00.234Z,37.90
2022-08-03T14:53:28.811Z,37.90
2022-08-03T14:55:56.011Z,38.00
2022-08-03T14:58:27.838Z,38.10
2022-08-03T15:00:56.635Z,38.20
2022-08-03T15:03:25.193Z,38.30
2022-08-03T15:05:57.114Z,38.30
2022-08-03T15:08:26.245Z,38.40
2022-08-03T15:10:55.111Z,38.40
2022-08-03T15:13:22.809Z,38.40
2022-08-03T15:15:51.787Z,38.50
2022-08-03T15:18:20.262Z,38.60
2022-08-03T15:20:49.639Z,38.60
2022-08-03T15:23:17.926Z,38.70
2022-08-03T15:26:30.292Z,38.80
2022-08-03T15:28:33.991Z,38.90
2022-08-03T15:31:01.896Z,39.00
2022-08-03T15:33:29.768Z,39.10
2022-08-03T15:35:57.128Z,39.20
2022-08-03T15:38:25.719Z,39.30
2022-08-03T15:40:59.076Z,39.40
2022-08-03T15:43:26.364Z,39.60
2022-08-03T15:48:41.564Z,39.90
2022-08-03T15:51:10.783Z,40.20
2022-08-03T15:53:38.505Z,40.40
2022-08-03T15:56:11.429Z,40.60
2022-08-03T15:59:03.550Z,40.80
2022-08-03T16:01:29.435Z,41.10
2022-08-03T16:03:56.619Z,41.40
2022-08-03T16:06:34.900Z,41.60
2022-08-03T16:09:23.558Z,41.90
2022-08-03T16:11:54.023Z,42.20
2022-08-03T16:14:32.038Z,42.50
2022-08-03T16:17:03.774Z,42.80
2022-08-03T16:19:30.982Z,43.00
2022-08-03T16:21:58.261Z,43.30
2022-08-03T16:24:27.951Z,43.60
2022-08-03T16:26:56.209Z,43.80
2022-08-03T16:29:24.045Z,44.10
2022-08-03T16:31:52.881Z,44.30
2022-08-03T16:34:21.289Z,44.50
2022-08-03T16:36:48.672Z,44.80
2022-08-03T16:39:15.840Z,45.00
2022-08-03T16:41:53.957Z,45.10
2022-08-03T16:44:30.862Z,45.30
2022-08-03T16:46:59.580Z,45.50
2022-08-03T16:49:56.101Z,45.60
2022-08-03T16:52:16.869Z,45.80
2022-08-03T16:54:53.144Z,46.10
2022-08-03T16:57:56.765Z,46.30
2022-08-03T17:00:12.192Z,46.50
2022-08-03T17:03:01.314Z,46.70
2022-08-03T17:05:32.705Z,46.90
2022-08-03T17:08:13.967Z,47.10
2022-08-03T17:10:45.674Z,47.30
2022-08-03T17:13:21.912Z,47.40
2022-08-03T17:15:58.059Z,47.50
2022-08-03T17:18:36.052Z,47.60
2022-08-03T17:21:07.956Z,47.60
2022-08-03T17:23:53.537Z,47.60
2022-08-03T17:26:24.060Z,47.60
2022-08-03T17:29:12.674Z,47.50
2022-08-03T17:31:48.495Z,47.50
2022-08-03T17:34:19.113Z,47.40
2022-08-03T17:37:04.750Z,47.30
2022-08-03T17:39:58.588Z,47.30
2022-08-03T17:42:38.928Z,47.20
2022-08-03T17:45:07.560Z,47.00
2022-08-03T17:47:41.786Z,46.90
2022-08-03T17:50:24.066Z,46.80
2022-08-03T17:53:07.470Z,46.60
2022-08-03T17:55:55.831Z,46.40
2022-08-03T17:58:52.865Z,46.20
2022-08-03T18:02:00.061Z,45.90
2022-08-03T18:04:41.654Z,45.60
2022-08-03T18:07:12.688Z,45.20
2022-08-03T18:10:05.944Z,44.90
2022-08-03T18:13:01.303Z,44.50
2022-08-03T18:15:39.981Z,43.90
2022-08-03T18:18:10.695Z,43.20
2022-08-03T18:20:42.156Z,42.50
2022-08-03T18:23:24.833Z,41.80
2022-08-03T18:25:58.039Z,41.10
2022-08-03T18:28:30.081Z,40.50
2022-08-03T18:30:58.497Z,39.90
2022-08-03T18:34:19.338Z,39.30
2022-08-03T18:36:22.076Z,38.70
2022-08-03T18:38:59.239Z,38.20
2022-08-03T18:41:32.735Z,37.60
2022-08-03T18:44:08.996Z,37.20
2022-08-03T18:47:26.240Z,36.70
2022-08-03T18:50:13.718Z,36.20
2022-08-03T18:53:03.048Z,35.80
2022-08-03T18:56:01.497Z,35.40
2022-08-03T18:58:53.531Z,35.00
2022-08-03T19:02:00.662Z,34.60
2022-08-03T19:04:53.391Z,34.20
2022-08-03T19:07:27.586Z,33.80
2022-08-03T19:10:10.502Z,33.40
2022-08-03T19:12:52.479Z,33.10
2022-08-03T19:15:37.054Z,32.80
2022-08-03T19:18:12.057Z,32.50
2022-08-03T19:20:46.824Z,32.20
2022-08-03T19:23:15.074Z,32.00
2022-08-03T19:25:43.186Z,31.80
2022-08-03T19:28:10.492Z,31.50
2022-08-03T19:30:40.519Z,31.30
2022-08-03T19:33:14.392Z,31.10
2022-08-03T19:35:55.182Z,30.90
2022-08-03T19:38:28.399Z,30.70
2022-08-03T19:41:04.461Z,30.50
2022-08-03T19:43:53.357Z,30.40
2022-08-03T19:46:30.524Z,30.20
2022-08-03T19:49:10.590Z,30.00
2022-08-03T19:51:58.536Z,29.80
2022-08-03T19:54:54.133Z,29.60
2022-08-03T19:57:24.891Z,29.50
2022-08-03T19:59:54.893Z,29.30
2022-08-03T20:02:26.313Z,29.10
2022-08-03T20:04:59.847Z,28.90
2022-08-03T20:07:31.981Z,28.70
2022-08-03T20:10:05.429Z,28.60
2022-08-03T20:12:39.254Z,28.40
2022-08-03T20:15:07.886Z,28.30
2022-08-03T20:17:54.384Z,28.10
2022-08-03T20:20:37.176Z,28.00
2022-08-03T20:23:24.922Z,27.80
2022-08-03T20:25:59.172Z,27.70
2022-08-03T20:28:50.196Z,27.50
2022-08-03T20:31:23.832Z,27.40
2022-08-03T20:34:00.432Z,27.30
2022-08-03T20:36:27.902Z,27.10
2022-08-03T20:38:58.027Z,27.00
2022-08-03T20:41:25.945Z,26.90
2022-08-03T20:43:53.300Z,26.80
2022-08-03T20:49:09.194Z,26.60
2022-08-03T20:51:50.225Z,26.50
2022-08-03T20:54:31.018Z,26.40
2022-08-03T20:57:03.618Z,26.30
2022-08-03T20:59:50.078Z,26.20
2022-08-03T21:02:29.959Z,26.10
2022-08-03T21:05:03.832Z,26.00
2022-08-03T21:08:05.175Z,26.00
2022-08-03T21:10:35.840Z,25.90
2022-08-03T21:13:13.735Z,26.70
2022-08-03T21:13:18.895Z,25.70
2022-08-03T21:16:06.065Z,25.70
2022-08-03T21:18:51.979Z,25.60
2022-08-03T21:21:23.101Z,25.50
2022-08-03T21:23:55.006Z,25.30
2022-08-03T21:26:26.060Z,25.30
2022-08-03T21:28:56.328Z,25.20
2022-08-03T21:31:26.503Z,25.10
2022-08-03T21:34:04.788Z,25.00
2022-08-03T21:36:35.804Z,24.90
2022-08-03T21:39:08.517Z,24.80
2022-08-03T21:41:39.078Z,24.70
2022-08-03T21:44:07.174Z,24.60
2022-08-03T21:46:38.245Z,24.50
2022-08-03T21:50:06.895Z,24.40
2022-08-03T21:51:59.793Z,24.40
2022-08-03T21:54:38.916Z,24.30
2022-08-03T21:57:14.553Z,24.20
2022-08-03T21:59:54.907Z,24.20
2022-08-03T22:02:30.108Z,24.10
2022-08-03T22:04:59.462Z,24.10
2022-08-03T22:07:29.247Z,24.00
2022-08-03T22:09:58.375Z,23.90
2022-08-03T22:12:29.542Z,23.80
2022-08-03T22:15:00.763Z,23.80
2022-08-03T22:17:55.213Z,23.70
2022-08-03T22:20:19.383Z,23.70
2022-08-03T22:22:55.722Z,23.70
2022-08-03T22:25:29.298Z,23.60
2022-08-03T22:28:00.478Z,23.50
2022-08-03T22:30:28.306Z,23.40
2022-08-03T22:32:56.418Z,23.30
2022-08-03T22:35:27.027Z,23.30
2022-08-03T22:37:57.885Z,23.20
2022-08-03T22:40:25.514Z,23.20
2022-08-03T22:42:52.798Z,23.10
2022-08-03T22:46:06.171Z,23.00
2022-08-03T22:48:08.741Z,23.00
2022-08-03T22:50:36.269Z,22.90
2022-08-03T22:53:03.738Z,22.90
2022-08-03T22:55:31.379Z,22.80
2022-08-03T22:57:58.629Z,22.80
2022-08-03T23:00:26.241Z,22.70
2022-08-03T23:02:56.448Z,22.70
2022-08-03T23:06:00.873Z,22.60
2022-08-03T23:08:24.812Z,22.60
2022-08-03T23:10:54.230Z,22.60
2022-08-03T23:13:28.176Z,22.50
2022-08-03T23:16:00.183Z,22.40
2022-08-03T23:18:37.276Z,22.40
2022-08-03T23:21:11.248Z,22.40
2022-08-03T23:23:44.696Z,22.30
2022-08-03T23:26:15.996Z,22.30
2022-08-03T23:28:47.272Z,22.20
2022-08-03T23:31:18.972Z,22.20
2022-08-03T23:33:46.772Z,22.10
2022-08-03T23:36:30.431Z,22.00
2022-08-03T23:39:02.464Z,22.00
2022-08-03T23:41:31.228Z,21.90
2022-08-03T23:44:01.501Z,21.90
2022-08-03T23:46:30.587Z,21.80
2022-08-03T23:48:59.955Z,21.80
2022-08-03T23:51:54.974Z,21.70
2022-08-03T23:54:27.757Z,21.70
2022-08-03T23:57:17.851Z,21.60
